USTRANSCOM 8639




RJTY
Yokota AFB
Fussa, JP
PAED
Elmendorf Air Force Base
Elmendorf, US

Activity Log

Date Flight Route Aircraft Duration
03/14/2019 CMB839 DAIGO Y889 OATIS OTR3 PUTER A590 HAMND SPAIR GRUUB1 B752 6h 08m

Route Details

Aircraft Information
Group: Boeing Common
Types: B752,B762,B763
Route Data
Demand: V
Distance: 3017nm
Duration: 7h 00m
Recm'd Route: DAIGO Y889 OATIS OTR3 PUTER A590 HAMND SPAIR GRUUB1
Origin Wx: RJTY 252256Z AUTO 36006KT 10SM OVC021 03/M04 A3007 RMK AO2 CIG 020 RWY18 SLP190 T00311044 $
Dest. Wx: PAED 252256Z 19004KT 6SM -SN SCT010 BKN020 M01/M02 A3005 RMK AO2A VIS NW 4 SLP174 P0000 T10101023
Notes: USTRANSCOM CONTRACT FLIGHT

Financial History
Total Freight: 47,635lbs
Average Load: 47,635lbs/flt
Fuel Used: 52,456lbs
Avg. Fuel Used: 52,456lbs/flt
Fuel Expense: $55,079
Avg. Fuel Expense: $55,079
Avg. Fuel Cost: $1.05/lbs
Total Gross Income: $94,317
Pilot Pay: $229
Total Expenses: $10,238
Total Revenue: $27,534
Average Revenue: $94,317.30